Time,TemperatureF,DewpointF,PressureIn,WindDirection,WindDirectionDegrees,WindSpeedMPH,WindSpeedGustMPH,Humidity,HourlyPrecipIn,Conditions,Clouds,dailyrainin,SoftwareType,DateUTC
2013-05-03 00:02:00,45.3,24.1,30.39,NNE,28,0.0,2.0,43,0.00,,,0.00,meteohub,2013-05-03 07:02:00,
2013-05-03 00:07:00,45.1,23.9,30.39,NNE,28,0.0,1.0,43,0.00,,,0.00,meteohub,2013-05-03 07:07:00,
2013-05-03 00:12:00,45.1,23.9,30.39,NNE,28,0.0,1.0,43,0.00,,,0.00,meteohub,2013-05-03 07:12:00,
2013-05-03 00:17:00,45.0,24.4,30.39,NNE,28,0.0,1.0,44,0.00,,,0.00,meteohub,2013-05-03 07:17:00,
2013-05-03 00:22:00,44.6,24.1,30.39,NNE,28,0.0,1.0,44,0.00,,,0.00,meteohub,2013-05-03 07:22:00,
2013-05-03 00:27:00,44.4,24.4,30.39,NNE,28,0.0,1.0,45,0.00,,,0.00,meteohub,2013-05-03 07:27:00,
2013-05-03 00:32:00,44.4,24.4,30.39,NNE,28,0.0,0.0,45,0.00,,,0.00,meteohub,2013-05-03 07:32:00,
2013-05-03 00:37:00,44.4,24.4,30.39,NNE,28,0.0,0.0,45,0.00,,,0.00,meteohub,2013-05-03 07:37:00,
2013-05-03 00:42:00,44.4,24.4,30.39,NNE,28,0.0,0.0,45,0.00,,,0.00,meteohub,2013-05-03 07:42:00,
2013-05-03 00:47:00,44.6,25.2,30.39,NNE,28,0.0,1.0,46,0.00,,,0.00,meteohub,2013-05-03 07:47:00,
2013-05-03 00:52:00,44.4,25.0,30.38,NNE,28,0.0,1.0,46,0.00,,,0.00,meteohub,2013-05-03 07:52:00,
2013-05-03 00:57:00,44.1,25.2,30.38,NNE,28,0.0,1.0,47,0.00,,,0.00,meteohub,2013-05-03 07:57:00,
2013-05-03 01:02:00,43.2,25.3,30.38,NNE,28,0.0,0.0,49,0.00,,,0.00,meteohub,2013-05-03 08:02:00,
2013-05-03 01:07:00,42.4,25.2,30.38,NNE,28,0.0,0.0,50,0.00,,,0.00,meteohub,2013-05-03 08:07:00,
2013-05-03 01:12:00,41.7,25.0,30.38,NNE,28,0.0,0.0,51,0.00,,,0.00,meteohub,2013-05-03 08:12:00,
2013-05-03 01:17:00,41.4,25.0,30.38,NNE,28,0.0,0.0,52,0.00,,,0.00,meteohub,2013-05-03 08:17:00,
2013-05-03 01:22:00,41.2,25.3,30.38,NNE,28,0.0,0.0,53,0.00,,,0.00,meteohub,2013-05-03 08:22:00,
2013-05-03 01:27:00,40.8,25.0,30.38,NNE,28,0.0,0.0,53,0.00,,,0.00,meteohub,2013-05-03 08:27:00,
2013-05-03 01:32:00,40.6,25.3,30.38,NNE,28,0.0,0.0,54,0.00,,,0.00,meteohub,2013-05-03 08:32:00,
2013-05-03 01:37:00,40.1,25.2,30.37,NNE,28,0.0,0.0,55,0.00,,,0.00,meteohub,2013-05-03 08:37:00,
2013-05-03 01:42:00,39.6,25.5,30.37,NNE,28,0.0,0.0,57,0.00,,,0.00,meteohub,2013-05-03 08:42:00,
2013-05-03 01:47:00,39.6,24.8,30.37,NNE,28,0.0,0.0,55,0.00,,,0.00,meteohub,2013-05-03 08:47:00,
2013-05-03 01:52:00,39.6,26.1,30.37,NNE,28,0.0,0.0,58,0.00,,,0.00,meteohub,2013-05-03 08:52:00,
2013-05-03 01:57:00,39.6,26.1,30.37,NNE,28,0.0,0.0,58,0.00,,,0.00,meteohub,2013-05-03 08:57:00,
2013-05-03 02:02:00,39.6,25.5,30.37,NNE,28,0.0,0.0,57,0.00,,,0.00,meteohub,2013-05-03 09:02:00,
2013-05-03 02:07:00,39.4,25.9,30.37,NNE,28,0.0,0.0,58,0.00,,,0.00,meteohub,2013-05-03 09:07:00,
2013-05-03 02:12:00,39.0,25.5,30.37,NNE,28,0.0,0.0,58,0.00,,,0.00,meteohub,2013-05-03 09:12:00,
2013-05-03 02:18:00,38.7,25.5,30.37,NNE,28,0.0,0.0,59,0.00,,,0.00,meteohub,2013-05-03 09:18:00,
2013-05-03 02:23:00,38.5,25.3,30.36,NNE,28,0.0,0.0,59,0.00,,,0.00,meteohub,2013-05-03 09:23:00,
2013-05-03 02:28:00,38.1,25.0,30.36,NNE,28,0.0,0.0,59,0.00,,,0.00,meteohub,2013-05-03 09:28:00,
2013-05-03 02:33:00,37.9,25.0,30.36,NNE,28,0.0,0.0,59,0.00,,,0.00,meteohub,2013-05-03 09:33:00,
2013-05-03 02:38:00,37.8,25.5,30.35,NNE,28,0.0,0.0,61,0.00,,,0.00,meteohub,2013-05-03 09:38:00,
2013-05-03 02:43:00,37.8,25.5,30.35,NNE,28,0.0,0.0,61,0.00,,,0.00,meteohub,2013-05-03 09:43:00,
2013-05-03 02:48:00,37.6,25.3,30.35,NNE,28,0.0,0.0,61,0.00,,,0.00,meteohub,2013-05-03 09:48:00,
2013-05-03 02:53:00,37.4,25.2,30.35,NNE,28,0.0,0.0,61,0.00,,,0.00,meteohub,2013-05-03 09:53:00,
2013-05-03 02:58:00,37.0,24.8,30.35,NNE,28,0.0,0.0,61,0.00,,,0.00,meteohub,2013-05-03 09:58:00,
2013-05-03 03:03:00,36.7,25.0,30.35,NNE,28,0.0,0.0,62,0.00,,,0.00,meteohub,2013-05-03 10:03:00,
2013-05-03 03:08:00,36.1,24.8,30.35,NNE,28,0.0,0.0,63,0.00,,,0.00,meteohub,2013-05-03 10:08:00,
2013-05-03 03:13:00,35.6,24.3,30.35,NNE,28,0.0,0.0,63,0.00,,,0.00,meteohub,2013-05-03 10:13:00,
2013-05-03 03:18:00,35.4,24.1,30.35,NNE,28,0.0,1.0,63,0.00,,,0.00,meteohub,2013-05-03 10:18:00,
2013-05-03 03:24:00,35.4,25.2,30.35,NNE,28,0.0,1.0,66,0.00,,,0.00,meteohub,2013-05-03 10:24:00,
2013-05-03 03:29:00,35.4,25.2,30.35,NNE,28,0.0,1.0,66,0.00,,,0.00,meteohub,2013-05-03 10:29:00,
2013-05-03 03:34:00,35.2,25.0,30.35,NNE,28,0.0,1.0,66,0.00,,,0.00,meteohub,2013-05-03 10:34:00,
2013-05-03 03:39:00,35.1,24.8,30.35,NNE,28,0.0,1.0,66,0.00,,,0.00,meteohub,2013-05-03 10:39:00,
2013-05-03 03:44:00,34.3,24.1,30.35,NNE,28,0.0,0.0,66,0.00,,,0.00,meteohub,2013-05-03 10:44:00,
2013-05-03 03:49:00,34.3,24.1,30.35,NNE,28,0.0,0.0,66,0.00,,,0.00,meteohub,2013-05-03 10:49:00,
2013-05-03 03:54:00,33.6,23.9,30.35,NNE,28,0.0,0.0,67,0.00,,,0.00,meteohub,2013-05-03 10:54:00,
2013-05-03 03:59:00,33.4,24.1,30.35,NNE,28,0.0,0.0,68,0.00,,,0.00,meteohub,2013-05-03 10:59:00,
2013-05-03 04:04:00,33.3,23.9,30.35,NNE,28,0.0,0.0,68,0.00,,,0.00,meteohub,2013-05-03 11:04:00,
2013-05-03 04:09:00,33.1,23.7,30.35,NNE,28,0.0,0.0,68,0.00,,,0.00,meteohub,2013-05-03 11:09:00,
2013-05-03 04:14:00,33.1,23.7,30.35,NNE,28,0.0,0.0,68,0.00,,,0.00,meteohub,2013-05-03 11:14:00,
2013-05-03 04:20:00,32.9,23.9,30.35,NNE,28,0.0,0.0,69,0.00,,,0.00,meteohub,2013-05-03 11:20:00,
2013-05-03 04:25:00,32.9,23.9,30.35,NNE,28,0.0,0.0,69,0.00,,,0.00,meteohub,2013-05-03 11:25:00,
2013-05-03 04:30:00,32.7,23.7,30.35,NNE,28,0.0,0.0,69,0.00,,,0.00,meteohub,2013-05-03 11:30:00,
2013-05-03 04:35:00,32.5,23.9,30.35,NNE,28,0.0,0.0,70,0.00,,,0.00,meteohub,2013-05-03 11:35:00,
2013-05-03 04:40:00,32.4,23.7,30.35,NNE,28,0.0,0.0,70,0.00,,,0.00,meteohub,2013-05-03 11:40:00,
2013-05-03 04:45:00,32.0,23.7,30.35,NNE,28,0.0,0.0,71,0.00,,,0.00,meteohub,2013-05-03 11:45:00,
2013-05-03 04:50:00,31.8,23.5,30.35,NNE,28,0.0,0.0,71,0.00,,,0.00,meteohub,2013-05-03 11:50:00,
2013-05-03 04:55:00,31.6,23.7,30.35,NNE,28,0.0,0.0,72,0.00,,,0.00,meteohub,2013-05-03 11:55:00,
2013-05-03 05:00:00,31.5,23.5,30.35,NNE,28,0.0,0.0,72,0.00,,,0.00,meteohub,2013-05-03 12:00:00,
2013-05-03 05:05:00,31.3,23.4,30.35,NNE,28,0.0,1.0,72,0.00,,,0.00,meteohub,2013-05-03 12:05:00,
2013-05-03 05:10:00,30.9,23.4,30.35,NNE,28,0.0,1.0,73,0.00,,,0.00,meteohub,2013-05-03 12:10:00,
2013-05-03 05:15:00,30.6,23.0,30.35,NNE,28,0.0,1.0,73,0.00,,,0.00,meteohub,2013-05-03 12:15:00,
2013-05-03 05:20:00,30.0,22.5,30.35,NNE,28,0.0,0.0,73,0.00,,,0.00,meteohub,2013-05-03 12:20:00,
2013-05-03 05:26:00,29.7,22.5,30.35,NNE,28,0.0,0.0,74,0.00,,,0.00,meteohub,2013-05-03 12:26:00,
2013-05-03 05:31:00,29.5,22.5,30.35,NNE,28,0.0,0.0,75,0.00,,,0.00,meteohub,2013-05-03 12:31:00,
2013-05-03 05:36:00,29.5,22.5,30.35,NNE,28,0.0,0.0,75,0.00,,,0.00,meteohub,2013-05-03 12:36:00,
2013-05-03 05:41:00,29.3,22.3,30.35,NNE,28,0.0,0.0,75,0.00,,,0.00,meteohub,2013-05-03 12:41:00,
2013-05-03 05:46:00,29.3,22.6,30.35,NNE,28,0.0,0.0,76,0.00,,,0.00,meteohub,2013-05-03 12:46:00,
2013-05-03 05:51:00,29.1,22.8,30.35,NNE,28,0.0,0.0,77,0.00,,,0.00,meteohub,2013-05-03 12:51:00,
2013-05-03 05:56:00,29.1,22.8,30.35,NNE,28,0.0,1.0,77,0.00,,,0.00,meteohub,2013-05-03 12:56:00,
2013-05-03 06:01:00,29.1,22.8,30.35,NNE,28,0.0,1.0,77,0.00,,,0.00,meteohub,2013-05-03 13:01:00,
2013-05-03 06:06:00,28.9,22.3,30.35,NNE,28,0.0,1.0,76,0.00,,,0.00,meteohub,2013-05-03 13:06:00,
2013-05-03 06:11:00,28.8,22.5,30.35,NNE,28,0.0,1.0,77,0.00,,,0.00,meteohub,2013-05-03 13:11:00,
2013-05-03 06:16:00,28.8,22.5,30.35,NNE,28,0.0,1.0,77,0.00,,,0.00,meteohub,2013-05-03 13:16:00,
2013-05-03 06:21:00,28.8,22.8,30.35,NNE,28,0.0,0.0,78,0.00,,,0.00,meteohub,2013-05-03 13:21:00,
2013-05-03 06:26:00,28.8,22.8,30.35,NNE,28,0.0,0.0,78,0.00,,,0.00,meteohub,2013-05-03 13:26:00,
2013-05-03 06:32:00,28.9,23.0,30.35,NNE,28,0.0,0.0,78,0.00,,,0.00,meteohub,2013-05-03 13:32:00,
2013-05-03 06:37:00,29.1,23.2,30.35,NNE,28,0.0,0.0,78,0.00,,,0.00,meteohub,2013-05-03 13:37:00,
2013-05-03 06:42:00,29.5,23.5,30.35,NNE,28,0.0,0.0,78,0.00,,,0.00,meteohub,2013-05-03 13:42:00,
2013-05-03 06:47:00,29.7,23.7,30.35,NNE,28,0.0,0.0,78,0.00,,,0.00,meteohub,2013-05-03 13:47:00,
2013-05-03 06:52:00,29.7,23.7,30.35,NNE,28,0.0,0.0,78,0.00,,,0.00,meteohub,2013-05-03 13:52:00,
2013-05-03 06:57:00,30.0,24.1,30.35,NNE,28,0.0,0.0,78,0.00,,,0.00,meteohub,2013-05-03 13:57:00,
2013-05-03 07:02:00,30.2,24.3,30.35,NNE,28,0.0,0.0,78,0.00,,,0.00,meteohub,2013-05-03 14:02:00,
2013-05-03 07:07:00,30.6,24.8,30.35,NNE,28,0.0,0.0,79,0.00,,,0.00,meteohub,2013-05-03 14:07:00,
2013-05-03 07:12:00,30.9,24.8,30.35,NNE,28,0.0,0.0,78,0.00,,,0.00,meteohub,2013-05-03 14:12:00,
2013-05-03 07:17:00,31.3,25.2,30.35,NNE,28,0.0,0.0,78,0.00,,,0.00,meteohub,2013-05-03 14:17:00,
2013-05-03 07:22:00,31.8,25.5,30.35,NNE,28,0.0,0.0,77,0.00,,,0.00,meteohub,2013-05-03 14:22:00,
2013-05-03 07:27:00,32.5,25.9,30.35,NNE,28,0.0,1.0,76,0.00,,,0.00,meteohub,2013-05-03 14:27:00,
2013-05-03 07:32:00,33.4,26.4,30.35,NNE,28,0.0,1.0,75,0.00,,,0.00,meteohub,2013-05-03 14:32:00,
2013-05-03 07:37:00,34.2,26.8,30.35,NNE,28,0.0,1.0,74,0.00,,,0.00,meteohub,2013-05-03 14:37:00,
2013-05-03 07:42:00,35.1,27.3,30.35,NNE,28,0.0,0.0,73,0.00,,,0.00,meteohub,2013-05-03 14:42:00,
2013-05-03 07:47:00,36.1,28.0,30.35,NNE,28,0.0,0.0,72,0.00,,,0.00,meteohub,2013-05-03 14:47:00,
2013-05-03 07:52:00,37.8,28.2,30.35,NNE,22,0.0,1.0,68,0.00,,,0.00,meteohub,2013-05-03 14:52:00,
2013-05-03 07:57:00,39.2,28.8,30.35,NNE,22,0.0,1.0,66,0.00,,,0.00,meteohub,2013-05-03 14:57:00,
2013-05-03 08:02:00,40.5,29.3,30.35,NNE,22,0.0,1.0,64,0.00,,,0.00,meteohub,2013-05-03 15:02:00,
2013-05-03 08:07:00,41.5,29.1,30.35,NNE,22,0.0,1.0,61,0.00,,,0.00,meteohub,2013-05-03 15:07:00,
2013-05-03 08:12:00,42.6,29.3,30.35,NNE,22,0.0,1.0,59,0.00,,,0.00,meteohub,2013-05-03 15:12:00,
2013-05-03 08:17:00,43.3,29.5,30.35,NNE,22,0.0,1.0,58,0.00,,,0.00,meteohub,2013-05-03 15:17:00,
2013-05-03 08:22:00,44.1,30.2,30.35,NNE,22,0.0,1.0,58,0.00,,,0.00,meteohub,2013-05-03 15:22:00,
2013-05-03 08:27:00,44.4,30.6,30.35,NNE,22,0.0,1.0,58,0.00,,,0.00,meteohub,2013-05-03 15:27:00,
2013-05-03 08:32:00,45.0,30.2,30.35,NNE,22,0.0,1.0,56,0.00,,,0.00,meteohub,2013-05-03 15:32:00,
2013-05-03 08:37:00,45.7,30.9,30.35,NNE,22,0.0,0.0,56,0.00,,,0.00,meteohub,2013-05-03 15:37:00,
2013-05-03 08:42:00,46.2,30.6,30.35,NNE,22,0.0,0.0,54,0.00,,,0.00,meteohub,2013-05-03 15:42:00,
2013-05-03 08:47:00,47.3,32.0,30.35,NNE,22,0.0,1.0,55,0.00,,,0.00,meteohub,2013-05-03 15:47:00,
2013-05-03 08:52:00,48.6,32.7,30.35,NNE,22,0.0,1.0,54,0.00,,,0.00,meteohub,2013-05-03 15:52:00,
2013-05-03 08:57:00,50.2,32.7,30.35,NNE,22,0.0,1.0,51,0.00,,,0.00,meteohub,2013-05-03 15:57:00,
2013-05-03 09:02:00,52.0,32.9,30.35,NNE,22,1.0,1.0,48,0.00,,,0.00,meteohub,2013-05-03 16:02:00,
2013-05-03 09:07:00,53.8,33.4,30.34,ENE,65,2.0,3.0,46,0.00,,,0.00,meteohub,2013-05-03 16:07:00,
2013-05-03 09:12:00,55.2,33.1,30.34,NNE,28,0.0,3.0,43,0.00,,,0.00,meteohub,2013-05-03 16:12:00,
2013-05-03 09:17:00,56.7,31.3,30.34,NE,37,1.0,5.0,38,0.00,,,0.00,meteohub,2013-05-03 16:17:00,
2013-05-03 09:22:00,57.6,30.7,30.32,NNE,28,0.0,8.0,36,0.00,,,0.00,meteohub,2013-05-03 16:22:00,
2013-05-03 09:27:00,58.3,32.2,30.32,NE,39,3.0,9.0,37,0.00,,,0.00,meteohub,2013-05-03 16:27:00,
2013-05-03 09:32:00,58.6,31.8,30.32,NNE,28,5.0,9.0,36,0.00,,,0.00,meteohub,2013-05-03 16:32:00,
2013-05-03 09:37:00,59.0,32.0,30.32,NE,55,4.0,9.0,36,0.00,,,0.00,meteohub,2013-05-03 16:37:00,
2013-05-03 09:42:00,59.5,32.5,30.32,North,11,4.0,9.0,36,0.00,,,0.00,meteohub,2013-05-03 16:42:00,
2013-05-03 09:47:00,59.9,32.2,30.32,NE,40,1.0,11.0,35,0.00,,,0.00,meteohub,2013-05-03 16:47:00,
2013-05-03 09:52:00,61.0,33.1,30.32,East,86,0.0,11.0,35,0.00,,,0.00,meteohub,2013-05-03 16:52:00,
2013-05-03 09:57:00,61.3,32.7,30.32,NE,42,0.0,9.0,34,0.00,,,0.00,meteohub,2013-05-03 16:57:00,
2013-05-03 10:02:00,61.3,33.4,30.32,NE,48,5.0,10.0,35,0.00,,,0.00,meteohub,2013-05-03 17:02:00,
2013-05-03 10:07:00,61.3,32.7,30.32,NW,314,3.0,10.0,34,0.00,,,0.00,meteohub,2013-05-03 17:07:00,
2013-05-03 10:12:00,61.5,32.9,30.32,NW,305,0.0,11.0,34,0.00,,,0.00,meteohub,2013-05-03 17:12:00,
2013-05-03 10:17:00,61.5,31.5,30.32,NNE,14,5.0,11.0,32,0.00,,,0.00,meteohub,2013-05-03 17:17:00,
2013-05-03 10:22:00,62.2,32.7,30.32,NNE,20,3.0,12.0,33,0.00,,,0.00,meteohub,2013-05-03 17:22:00,
2013-05-03 10:27:00,62.1,31.8,30.32,NE,46,6.0,12.0,32,0.00,,,0.00,meteohub,2013-05-03 17:27:00,
2013-05-03 10:32:00,62.6,31.5,30.32,ENE,78,1.0,12.0,31,0.00,,,0.00,meteohub,2013-05-03 17:32:00,
2013-05-03 10:37:00,63.7,32.5,30.32,NNE,19,3.0,11.0,31,0.00,,,0.00,meteohub,2013-05-03 17:37:00,
2013-05-03 10:42:00,64.2,32.2,30.32,NE,55,7.0,10.0,30,0.00,,,0.00,meteohub,2013-05-03 17:42:00,
2013-05-03 10:47:00,64.6,32.4,30.32,NW,304,4.0,10.0,30,0.00,,,0.00,meteohub,2013-05-03 17:47:00,
2013-05-03 10:52:00,64.8,31.8,30.32,North,355,0.0,10.0,29,0.00,,,0.00,meteohub,2013-05-03 17:52:00,
2013-05-03 10:57:00,64.8,30.0,30.32,NNE,30,5.0,10.0,27,0.00,,,0.00,meteohub,2013-05-03 17:57:00,
2013-05-03 11:02:00,63.9,30.9,30.32,NE,47,0.0,14.0,29,0.00,,,0.00,meteohub,2013-05-03 18:02:00,
2013-05-03 11:07:00,64.0,31.1,30.32,NE,37,0.0,14.0,29,0.00,,,0.00,meteohub,2013-05-03 18:07:00,
2013-05-03 11:12:00,64.2,30.4,30.32,ENE,60,3.0,15.0,28,0.00,,,0.00,meteohub,2013-05-03 18:12:00,
2013-05-03 11:17:00,64.2,31.3,30.32,WNW,300,3.0,15.0,29,0.00,,,0.00,meteohub,2013-05-03 18:17:00,
2013-05-03 11:22:00,64.9,32.0,30.33,NNE,26,2.0,15.0,29,0.00,,,0.00,meteohub,2013-05-03 18:22:00,
2013-05-03 11:27:00,65.3,30.4,30.33,NNW,329,9.0,13.0,27,0.00,,,0.00,meteohub,2013-05-03 18:27:00,
2013-05-03 11:32:00,64.8,31.8,30.33,ENE,78,5.0,13.0,29,0.00,,,0.00,meteohub,2013-05-03 18:32:00,
2013-05-03 11:37:00,64.9,31.1,30.33,North,5,0.0,13.0,28,0.00,,,0.00,meteohub,2013-05-03 18:37:00,
2013-05-03 11:42:00,64.9,32.0,30.33,NNE,32,3.0,10.0,29,0.00,,,0.00,meteohub,2013-05-03 18:42:00,
2013-05-03 11:47:00,66.2,32.2,30.33,ENE,72,5.0,10.0,28,0.00,,,0.00,meteohub,2013-05-03 18:47:00,
2013-05-03 11:52:00,66.4,31.5,30.33,NNW,328,1.0,10.0,27,0.00,,,0.00,meteohub,2013-05-03 18:52:00,
2013-05-03 11:57:00,66.0,31.1,30.33,NNE,19,7.0,11.0,27,0.00,,,0.00,meteohub,2013-05-03 18:57:00,
2013-05-03 12:02:00,66.0,31.1,30.33,North,5,0.0,11.0,27,0.00,,,0.00,meteohub,2013-05-03 19:02:00,
2013-05-03 12:07:00,66.7,31.6,30.32,NW,319,8.0,9.0,27,0.00,,,0.00,meteohub,2013-05-03 19:07:00,
2013-05-03 12:12:00,66.4,30.4,30.32,WNW,287,2.0,12.0,26,0.00,,,0.00,meteohub,2013-05-03 19:12:00,
2013-05-03 12:21:00,66.0,31.1,30.32,NNW,339,1.0,12.0,27,0.00,,,0.00,meteohub,2013-05-03 19:21:00,
2013-05-03 12:26:00,66.9,30.9,30.32,North,0,6.0,10.0,26,0.00,,,0.00,meteohub,2013-05-03 19:26:00,
2013-05-03 12:31:00,65.7,31.6,30.32,North,9,12.0,15.0,28,0.00,,,0.00,meteohub,2013-05-03 19:31:00,
2013-05-03 12:37:00,66.4,32.4,30.32,NNE,26,0.0,15.0,28,0.00,,,0.00,meteohub,2013-05-03 19:37:00,
2013-05-03 12:42:00,67.3,31.3,30.32,NNW,331,1.0,15.0,26,0.00,,,0.00,meteohub,2013-05-03 19:42:00,
2013-05-03 12:47:00,67.1,32.9,30.32,ESE,117,0.0,12.0,28,0.00,,,0.00,meteohub,2013-05-03 19:47:00,
2013-05-03 12:52:00,67.3,32.2,30.32,NNE,28,0.0,10.0,27,0.00,,,0.00,meteohub,2013-05-03 19:52:00,
2013-05-03 12:57:00,67.3,31.3,30.32,ENE,63,2.0,11.0,26,0.00,,,0.00,meteohub,2013-05-03 19:57:00,
2013-05-03 13:02:00,66.7,33.4,30.32,NNW,328,5.0,12.0,29,0.00,,,0.00,meteohub,2013-05-03 20:02:00,
2013-05-03 13:07:00,67.5,31.5,30.32,NNE,24,0.0,13.0,26,0.00,,,0.00,meteohub,2013-05-03 20:07:00,
2013-05-03 13:12:00,66.9,30.9,30.32,NNE,27,3.0,13.0,26,0.00,,,0.00,meteohub,2013-05-03 20:12:00,
2013-05-03 13:17:00,67.1,31.1,30.32,NE,51,3.0,12.0,26,0.00,,,0.00,meteohub,2013-05-03 20:17:00,
2013-05-03 13:22:00,67.6,31.5,30.31,East,85,2.0,13.0,26,0.00,,,0.00,meteohub,2013-05-03 20:22:00,
2013-05-03 13:27:00,68.0,31.8,30.31,NNW,344,6.0,13.0,26,0.00,,,0.00,meteohub,2013-05-03 20:27:00,
2013-05-03 13:32:00,68.2,31.1,30.31,North,11,8.0,9.0,25,0.00,,,0.00,meteohub,2013-05-03 20:32:00,
2013-05-03 13:37:00,67.8,32.5,30.31,North,355,3.0,12.0,27,0.00,,,0.00,meteohub,2013-05-03 20:37:00,
2013-05-03 13:42:00,67.6,32.5,30.31,NE,51,1.0,12.0,27,0.00,,,0.00,meteohub,2013-05-03 20:42:00,
2013-05-03 13:47:00,68.2,32.9,30.31,NNE,18,0.0,11.0,27,0.00,,,0.00,meteohub,2013-05-03 20:47:00,
2013-05-03 13:52:00,68.0,31.8,30.31,NNE,21,0.0,11.0,26,0.00,,,0.00,meteohub,2013-05-03 20:52:00,
2013-05-03 13:57:00,67.5,30.4,30.31,NW,315,1.0,12.0,25,0.00,,,0.00,meteohub,2013-05-03 20:57:00,
2013-05-03 14:02:00,67.6,31.5,30.31,North,5,5.0,15.0,26,0.00,,,0.00,meteohub,2013-05-03 21:02:00,
2013-05-03 14:07:00,67.5,31.5,30.30,North,9,5.0,15.0,26,0.00,,,0.00,meteohub,2013-05-03 21:07:00,
2013-05-03 14:12:00,67.8,30.7,30.30,NNE,28,3.0,15.0,25,0.00,,,0.00,meteohub,2013-05-03 21:12:00,
2013-05-03 14:17:00,68.4,31.1,30.30,WNW,294,3.0,11.0,25,0.00,,,0.00,meteohub,2013-05-03 21:17:00,
2013-05-03 14:22:00,68.5,32.4,30.30,NW,313,4.0,10.0,26,0.00,,,0.00,meteohub,2013-05-03 21:22:00,
2013-05-03 14:27:00,69.3,32.0,30.30,NW,312,0.0,9.0,25,0.00,,,0.00,meteohub,2013-05-03 21:27:00,
2013-05-03 14:32:00,69.4,32.0,30.30,North,355,5.0,8.0,25,0.00,,,0.00,meteohub,2013-05-03 21:32:00,
2013-05-03 14:37:00,69.6,33.3,30.30,NNE,19,0.0,11.0,26,0.00,,,0.00,meteohub,2013-05-03 21:37:00,
2013-05-03 14:42:00,69.3,32.0,30.30,North,11,2.0,11.0,25,0.00,,,0.00,meteohub,2013-05-03 21:42:00,
2013-05-03 14:47:00,69.6,30.2,30.30,NNE,30,10.0,16.0,23,0.00,,,0.00,meteohub,2013-05-03 21:47:00,
2013-05-03 14:52:00,69.3,30.9,30.30,NNW,345,2.0,16.0,24,0.00,,,0.00,meteohub,2013-05-03 21:52:00,
2013-05-03 14:57:00,68.7,31.5,30.30,ENE,67,3.0,11.0,25,0.00,,,0.00,meteohub,2013-05-03 21:57:00,
2013-05-03 15:02:00,69.6,32.2,30.30,WNW,299,4.0,13.0,25,0.00,,,0.00,meteohub,2013-05-03 22:02:00,
2013-05-03 15:07:00,69.4,32.0,30.29,NNE,30,5.0,16.0,25,0.00,,,0.00,meteohub,2013-05-03 22:07:00,
2013-05-03 15:12:00,69.4,33.1,30.29,WNW,288,3.0,16.0,26,0.00,,,0.00,meteohub,2013-05-03 22:12:00,
2013-05-03 15:17:00,69.8,32.4,30.29,NW,304,2.0,9.0,25,0.00,,,0.00,meteohub,2013-05-03 22:17:00,
2013-05-03 15:22:00,69.4,31.1,30.29,North,9,1.0,10.0,24,0.00,,,0.00,meteohub,2013-05-03 22:22:00,
2013-05-03 15:27:00,69.3,30.9,30.29,WNW,298,3.0,10.0,24,0.00,,,0.00,meteohub,2013-05-03 22:27:00,
2013-05-03 15:32:00,69.3,32.0,30.29,North,355,0.0,12.0,25,0.00,,,0.00,meteohub,2013-05-03 22:32:00,
2013-05-03 15:37:00,69.6,33.3,30.28,WNW,298,2.0,12.0,26,0.00,,,0.00,meteohub,2013-05-03 22:37:00,
2013-05-03 15:42:00,69.4,31.1,30.28,NW,307,9.0,13.0,24,0.00,,,0.00,meteohub,2013-05-03 22:42:00,
2013-05-03 15:47:00,69.3,32.9,30.28,NW,315,9.0,16.0,26,0.00,,,0.00,meteohub,2013-05-03 22:47:00,
2013-05-03 15:52:00,68.4,32.2,30.28,NW,315,3.0,16.0,26,0.00,,,0.00,meteohub,2013-05-03 22:52:00,
2013-05-03 15:57:00,68.2,32.9,30.28,NW,326,1.0,16.0,27,0.00,,,0.00,meteohub,2013-05-03 22:57:00,
2013-05-03 16:02:00,68.7,32.4,30.28,North,10,5.0,12.0,26,0.00,,,0.00,meteohub,2013-05-03 23:02:00,
2013-05-03 16:07:00,68.7,32.4,30.27,NNE,27,3.0,10.0,26,0.00,,,0.00,meteohub,2013-05-03 23:07:00,
2013-05-03 16:12:00,68.5,31.3,30.27,NNW,336,7.0,11.0,25,0.00,,,0.00,meteohub,2013-05-03 23:12:00,
2013-05-03 16:17:00,67.8,31.6,30.27,NNE,27,5.0,11.0,26,0.00,,,0.00,meteohub,2013-05-03 23:17:00,
2013-05-03 16:22:00,67.5,31.5,30.27,NW,307,1.0,11.0,26,0.00,,,0.00,meteohub,2013-05-03 23:22:00,
2013-05-03 16:27:00,67.5,33.3,30.27,NNE,17,9.0,11.0,28,0.00,,,0.00,meteohub,2013-05-03 23:27:00,
2013-05-03 16:32:00,67.5,31.5,30.27,NNW,338,9.0,14.0,26,0.00,,,0.00,meteohub,2013-05-03 23:32:00,
2013-05-03 16:37:00,66.9,30.9,30.27,NNE,13,1.0,16.0,26,0.00,,,0.00,meteohub,2013-05-03 23:37:00,
2013-05-03 16:42:00,66.6,30.6,30.27,NW,309,2.0,16.0,26,0.00,,,0.00,meteohub,2013-05-03 23:42:00,
2013-05-03 16:47:00,66.7,31.6,30.27,WNW,290,3.0,16.0,27,0.00,,,0.00,meteohub,2013-05-03 23:47:00,
2013-05-03 16:52:00,66.6,30.6,30.27,NNE,12,3.0,14.0,26,0.00,,,0.00,meteohub,2013-05-03 23:52:00,
2013-05-03 16:57:00,66.7,31.6,30.27,NW,309,4.0,14.0,27,0.00,,,0.00,meteohub,2013-05-03 23:57:00,
2013-05-03 17:02:00,66.6,31.5,30.27,NNW,333,2.0,15.0,27,0.00,,,0.00,meteohub,2013-05-04 00:02:00,
2013-05-03 17:08:00,66.7,29.8,30.27,North,11,7.0,15.0,25,0.00,,,0.00,meteohub,2013-05-04 00:08:00,
2013-05-03 17:13:00,66.4,29.5,30.27,NNE,19,7.0,17.0,25,0.00,,,0.00,meteohub,2013-05-04 00:13:00,
2013-05-03 17:18:00,66.0,31.1,30.27,North,5,10.0,17.0,27,0.00,,,0.00,meteohub,2013-05-04 00:18:00,
2013-05-03 17:23:00,66.0,31.1,30.28,North,10,6.0,17.0,27,0.00,,,0.00,meteohub,2013-05-04 00:23:00,
2013-05-03 17:28:00,66.0,29.1,30.28,NE,39,6.0,15.0,25,0.00,,,0.00,meteohub,2013-05-04 00:28:00,
2013-05-03 17:33:00,65.7,29.8,30.28,NW,311,6.0,15.0,26,0.00,,,0.00,meteohub,2013-05-04 00:33:00,
2013-05-03 17:38:00,65.5,29.7,30.28,NW,323,4.0,17.0,26,0.00,,,0.00,meteohub,2013-05-04 00:38:00,
2013-05-03 17:43:00,65.1,30.4,30.28,NE,42,3.0,17.0,27,0.00,,,0.00,meteohub,2013-05-04 00:43:00,
2013-05-03 17:48:00,65.1,30.4,30.28,NE,34,3.0,16.0,27,0.00,,,0.00,meteohub,2013-05-04 00:48:00,
2013-05-03 17:53:00,65.1,30.4,30.27,WNW,294,5.0,17.0,27,0.00,,,0.00,meteohub,2013-05-04 00:53:00,
2013-05-03 17:58:00,64.8,30.0,30.27,NNW,343,0.0,17.0,27,0.00,,,0.00,meteohub,2013-05-04 00:58:00,
2013-05-03 18:03:00,64.6,30.7,30.27,NE,40,2.0,14.0,28,0.00,,,0.00,meteohub,2013-05-04 01:03:00,
2013-05-03 18:09:00,64.2,30.4,30.27,North,9,1.0,14.0,28,0.00,,,0.00,meteohub,2013-05-04 01:09:00,
2013-05-03 18:14:00,64.0,30.2,30.27,NE,40,10.0,13.0,28,0.00,,,0.00,meteohub,2013-05-04 01:14:00,
2013-05-03 18:19:00,63.9,30.2,30.27,North,355,9.0,13.0,28,0.00,,,0.00,meteohub,2013-05-04 01:19:00,
2013-05-03 18:24:00,63.5,30.7,30.28,NNE,25,5.0,14.0,29,0.00,,,0.00,meteohub,2013-05-04 01:24:00,
2013-05-03 18:29:00,63.5,30.7,30.28,NNE,13,0.0,18.0,29,0.00,,,0.00,meteohub,2013-05-04 01:29:00,
2013-05-03 18:34:00,63.1,30.4,30.28,North,355,7.0,18.0,29,0.00,,,0.00,meteohub,2013-05-04 01:34:00,
2013-05-03 18:39:00,62.8,30.0,30.27,NNE,12,5.0,18.0,29,0.00,,,0.00,meteohub,2013-05-04 01:39:00,
2013-05-03 18:44:00,62.2,31.3,30.27,North,355,1.0,17.0,31,0.00,,,0.00,meteohub,2013-05-04 01:44:00,
2013-05-03 18:49:00,62.1,31.1,30.27,North,355,7.0,17.0,31,0.00,,,0.00,meteohub,2013-05-04 01:49:00,
2013-05-03 18:54:00,62.1,31.8,30.27,NNW,328,0.0,17.0,32,0.00,,,0.00,meteohub,2013-05-04 01:54:00,
2013-05-03 18:59:00,61.7,31.5,30.27,NNE,20,6.0,14.0,32,0.00,,,0.00,meteohub,2013-05-04 01:59:00,
2013-05-03 19:05:00,61.3,31.3,30.27,North,5,5.0,12.0,32,0.00,,,0.00,meteohub,2013-05-04 02:05:00,
2013-05-03 19:10:00,61.2,31.1,30.27,NNW,344,4.0,16.0,32,0.00,,,0.00,meteohub,2013-05-04 02:10:00,
2013-05-03 19:15:00,61.0,31.6,30.27,North,5,9.0,16.0,33,0.00,,,0.00,meteohub,2013-05-04 02:15:00,
2013-05-03 19:20:00,60.6,30.6,30.27,NNE,17,0.0,16.0,32,0.00,,,0.00,meteohub,2013-05-04 02:20:00,
2013-05-03 19:25:00,60.4,29.7,30.27,North,5,0.0,14.0,31,0.00,,,0.00,meteohub,2013-05-04 02:25:00,
2013-05-03 19:30:00,60.3,29.5,30.27,NE,49,2.0,13.0,31,0.00,,,0.00,meteohub,2013-05-04 02:30:00,
2013-05-03 19:35:00,60.1,28.6,30.27,North,351,8.0,13.0,30,0.00,,,0.00,meteohub,2013-05-04 02:35:00,
2013-05-03 19:40:00,59.7,28.9,30.27,NNE,16,2.0,13.0,31,0.00,,,0.00,meteohub,2013-05-04 02:40:00,
2013-05-03 19:45:00,59.4,28.8,30.27,North,5,4.0,13.0,31,0.00,,,0.00,meteohub,2013-05-04 02:45:00,
2013-05-03 19:50:00,59.2,28.6,30.27,NE,51,7.0,18.0,31,0.00,,,0.00,meteohub,2013-05-04 02:50:00,
2013-05-03 19:55:00,59.0,29.1,30.27,NNW,335,9.0,18.0,32,0.00,,,0.00,meteohub,2013-05-04 02:55:00,
2013-05-03 20:00:00,58.8,28.9,30.27,NNE,21,6.0,15.0,32,0.00,,,0.00,meteohub,2013-05-04 03:00:00,
2013-05-03 20:05:00,58.5,28.8,30.27,NNE,17,3.0,13.0,32,0.00,,,0.00,meteohub,2013-05-04 03:05:00,
2013-05-03 20:11:00,58.3,28.6,30.27,NNE,30,2.0,13.0,32,0.00,,,0.00,meteohub,2013-05-04 03:11:00,
2013-05-03 20:16:00,57.7,28.0,30.27,NNE,21,1.0,11.0,32,0.00,,,0.00,meteohub,2013-05-04 03:16:00,
2013-05-03 20:21:00,57.6,28.6,30.27,NNE,26,1.0,9.0,33,0.00,,,0.00,meteohub,2013-05-04 03:21:00,
2013-05-03 20:26:00,57.2,29.1,30.27,NNE,15,2.0,8.0,34,0.00,,,0.00,meteohub,2013-05-04 03:26:00,
2013-05-03 20:31:00,57.0,28.9,30.27,North,5,0.0,8.0,34,0.00,,,0.00,meteohub,2013-05-04 03:31:00,
2013-05-03 20:36:00,56.8,29.5,30.27,NNW,333,5.0,9.0,35,0.00,,,0.00,meteohub,2013-05-04 03:36:00,
2013-05-03 20:41:00,56.5,29.1,30.27,NNE,15,0.0,12.0,35,0.00,,,0.00,meteohub,2013-05-04 03:41:00,
2013-05-03 20:46:00,56.1,29.5,30.27,North,5,0.0,12.0,36,0.00,,,0.00,meteohub,2013-05-04 03:46:00,
2013-05-03 20:51:00,55.6,29.1,30.27,North,11,2.0,12.0,36,0.00,,,0.00,meteohub,2013-05-04 03:51:00,
2013-05-03 20:56:00,55.0,28.6,30.27,NNE,22,4.0,6.0,36,0.00,,,0.00,meteohub,2013-05-04 03:56:00,
2013-05-03 21:01:00,54.9,29.1,30.27,WNW,300,2.0,8.0,37,0.00,,,0.00,meteohub,2013-05-04 04:01:00,
2013-05-03 21:02:00,54.9,29.1,30.27,NW,309,0.0,8.0,37,0.00,,,0.00,meteohub,2013-05-04 04:02:00,
2013-05-03 21:03:00,54.7,29.5,30.27,NW,323,0.0,8.0,38,0.00,,,0.00,meteohub,2013-05-04 04:03:00,
2013-05-03 21:05:00,54.7,29.5,30.27,NW,323,0.0,8.0,38,0.00,,,0.00,meteohub,2013-05-04 04:05:00,
2013-05-03 21:07:00,54.3,28.6,30.27,NW,319,0.0,8.0,37,0.00,,,0.00,meteohub,2013-05-04 04:07:00,
2013-05-03 21:12:00,54.1,29.1,30.27,NW,326,1.0,8.0,38,0.00,,,0.00,meteohub,2013-05-04 04:12:00,
2013-05-03 21:17:00,53.8,28.8,30.27,North,10,0.0,5.0,38,0.00,,,0.00,meteohub,2013-05-04 04:17:00,
2013-05-03 21:22:00,53.4,29.1,30.27,NE,34,0.0,5.0,39,0.00,,,0.00,meteohub,2013-05-04 04:22:00,
2013-05-03 21:27:00,53.1,28.8,30.27,NE,34,1.0,5.0,39,0.00,,,0.00,meteohub,2013-05-04 04:27:00,
2013-05-03 21:32:00,52.7,29.1,30.27,North,11,0.0,5.0,40,0.00,,,0.00,meteohub,2013-05-04 04:32:00,
2013-05-03 21:37:00,52.3,29.3,30.27,North,11,0.0,5.0,41,0.00,,,0.00,meteohub,2013-05-04 04:37:00,
2013-05-03 21:42:00,52.2,29.8,30.27,North,11,0.0,5.0,42,0.00,,,0.00,meteohub,2013-05-04 04:42:00,
2013-05-03 21:47:00,51.6,29.3,30.27,North,11,0.0,3.0,42,0.00,,,0.00,meteohub,2013-05-04 04:47:00,
2013-05-03 21:52:00,51.3,29.5,30.27,North,11,0.0,1.0,43,0.00,,,0.00,meteohub,2013-05-04 04:52:00,
2013-05-03 21:57:00,51.1,29.3,30.27,NNE,26,3.0,3.0,43,0.00,,,0.00,meteohub,2013-05-04 04:57:00,
2013-05-03 22:02:00,51.1,29.8,30.27,NE,40,3.0,5.0,44,0.00,,,0.00,meteohub,2013-05-04 05:02:00,
2013-05-03 22:07:00,51.1,29.8,30.28,NNE,28,0.0,5.0,44,0.00,,,0.00,meteohub,2013-05-04 05:07:00,
2013-05-03 22:12:00,50.7,29.7,30.28,NNE,28,0.0,5.0,44,0.00,,,0.00,meteohub,2013-05-04 05:12:00,
2013-05-03 22:17:00,50.4,29.8,30.28,NNE,27,0.0,5.0,45,0.00,,,0.00,meteohub,2013-05-04 05:17:00,
2013-05-03 22:22:00,50.4,29.8,30.28,NNE,26,3.0,4.0,45,0.00,,,0.00,meteohub,2013-05-04 05:22:00,
2013-05-03 22:27:00,50.2,29.7,30.28,NNE,26,0.0,4.0,45,0.00,,,0.00,meteohub,2013-05-04 05:27:00,
2013-05-03 22:32:00,49.6,29.7,30.28,NNE,26,0.0,4.0,46,0.00,,,0.00,meteohub,2013-05-04 05:32:00,
2013-05-03 22:37:00,49.5,29.5,30.28,NNE,26,0.0,3.0,46,0.00,,,0.00,meteohub,2013-05-04 05:37:00,
2013-05-03 22:42:00,49.5,29.5,30.28,NNE,26,3.0,3.0,46,0.00,,,0.00,meteohub,2013-05-04 05:42:00,
2013-05-03 22:47:00,49.3,29.8,30.28,NNE,26,0.0,3.0,47,0.00,,,0.00,meteohub,2013-05-04 05:47:00,
2013-05-03 22:52:00,48.9,29.7,30.28,NNE,26,0.0,3.0,47,0.00,,,0.00,meteohub,2013-05-04 05:52:00,
2013-05-03 22:57:00,48.6,29.8,30.28,NNE,26,0.0,3.0,48,0.00,,,0.00,meteohub,2013-05-04 05:57:00,
2013-05-03 23:02:00,48.0,29.8,30.28,NNE,26,0.0,0.0,49,0.00,,,0.00,meteohub,2013-05-04 06:02:00,
2013-05-03 23:07:00,47.1,29.5,30.29,NNE,26,0.0,0.0,50,0.00,,,0.00,meteohub,2013-05-04 06:07:00,
2013-05-03 23:12:00,46.6,29.5,30.29,NNE,26,0.0,0.0,51,0.00,,,0.00,meteohub,2013-05-04 06:12:00,
2013-05-03 23:17:00,46.2,29.5,30.29,NNE,26,0.0,0.0,52,0.00,,,0.00,meteohub,2013-05-04 06:17:00,
2013-05-03 23:22:00,45.7,29.5,30.28,NNE,26,0.0,0.0,53,0.00,,,0.00,meteohub,2013-05-04 06:22:00,
2013-05-03 23:27:00,45.0,28.9,30.28,NNE,26,0.0,0.0,53,0.00,,,0.00,meteohub,2013-05-04 06:27:00,
2013-05-03 23:32:00,44.4,28.8,30.28,NNE,26,0.0,0.0,54,0.00,,,0.00,meteohub,2013-05-04 06:32:00,
2013-05-03 23:37:00,43.9,28.4,30.28,NNE,26,0.0,0.0,54,0.00,,,0.00,meteohub,2013-05-04 06:37:00,
2013-05-03 23:42:00,43.3,28.2,30.28,NNE,26,0.0,0.0,55,0.00,,,0.00,meteohub,2013-05-04 06:42:00,
2013-05-03 23:47:00,43.0,28.4,30.28,NNE,26,0.0,1.0,56,0.00,,,0.00,meteohub,2013-05-04 06:47:00,
2013-05-03 23:52:00,42.6,28.4,30.27,NNE,26,0.0,1.0,57,0.00,,,0.00,meteohub,2013-05-04 06:52:00,
2013-05-03 23:57:00,42.6,28.4,30.27,NNE,26,0.0,0.0,57,0.00,,,0.00,meteohub,2013-05-04 06:57:00,